Time;durP1;ratioP1;P1;durP2;ratioP2;P2;SDS_P1;SDS_P2;PMS_P1;PMS_P2;Temp;Humidity;BMP_temperature;BMP_pressure;BME280_temperature;BME280_humidity;BME280_pressure;Samples;Min_cycle;Max_cycle;Signal;HPM_P1;HPM_P2
2021/11/26 00:00:10;;;;;;;10.20;5.40;;;;;;;;;;5074383;28;20052;-69
2021/11/26 00:02:36;;;;;;;13.38;6.57;;;;;;;;;;5092647;28;20052;-68
2021/11/26 00:05:03;;;;;;;12.18;6.50;;;;;;;;;;5092771;28;20020;-69
2021/11/26 00:07:30;;;;;;;12.18;6.10;;;;;;;;;;5094259;28;20091;-69
2021/11/26 00:09:56;;;;;;;12.48;6.30;;;;;;;;;;5096151;28;20047;-69
2021/11/26 00:12:23;;;;;;;9.73;5.90;;;;;;;;;;5096452;28;20145;-69
2021/11/26 00:17:29;;;;;;;10.30;5.47;;;;;;;;;;5096109;28;20034;-69
2021/11/26 00:19:56;;;;;;;11.23;6.13;;;;;;;;;;5096236;28;20053;-69
2021/11/26 00:22:22;;;;;;;10.82;6.20;;;;;;;;;;5096064;28;20020;-68
2021/11/26 00:24:49;;;;;;;13.25;5.47;;;;;;;;;;5078025;28;20028;-68
2021/11/26 00:27:15;;;;;;;12.30;6.22;;;;;;;;;;5077953;28;20074;-68
2021/11/26 00:29:41;;;;;;;12.65;6.88;;;;;;;;;;5095878;28;20025;-68
2021/11/26 00:32:08;;;;;;;11.02;6.13;;;;;;;;;;5077894;28;20052;-70
2021/11/26 00:34:34;;;;;;;13.18;6.30;;;;;;;;;;5096137;28;20024;-68
2021/11/26 00:37:00;;;;;;;10.85;5.97;;;;;;;;;;5077699;28;20052;-68
2021/11/26 00:39:26;;;;;;;10.05;5.88;;;;;;;;;;5095919;28;20024;-68
2021/11/26 00:41:52;;;;;;;9.45;5.55;;;;;;;;;;5096034;28;20441;-68
2021/11/26 00:44:18;;;;;;;10.07;5.40;;;;;;;;;;5077302;28;20028;-68
2021/11/26 00:46:45;;;;;;;12.95;6.05;;;;;;;;;;5077743;28;20028;-69
2021/11/26 00:49:11;;;;;;;14.15;6.47;;;;;;;;;;5095843;28;20020;-68
2021/11/26 00:51:37;;;;;;;14.05;6.45;;;;;;;;;;5095203;28;20032;-68
2021/11/26 00:54:04;;;;;;;10.93;6.05;;;;;;;;;;5095698;28;20035;-68
2021/11/26 00:56:30;;;;;;;12.70;5.82;;;;;;;;;;5095626;28;20061;-68
2021/11/26 00:58:56;;;;;;;11.68;6.40;;;;;;;;;;5095284;28;20048;-68
2021/11/26 01:01:22;;;;;;;11.00;6.90;;;;;;;;;;5077102;28;20044;-69
2021/11/26 01:03:48;;;;;;;12.55;6.10;;;;;;;;;;5095701;28;20024;-68
2021/11/26 01:06:14;;;;;;;12.90;6.82;;;;;;;;;;5095065;28;20024;-68
2021/11/26 01:08:41;;;;;;;13.70;6.68;;;;;;;;;;5077236;28;20044;-68
2021/11/26 01:11:07;;;;;;;12.80;6.10;;;;;;;;;;5095439;28;20024;-68
2021/11/26 01:13:33;;;;;;;15.35;6.65;;;;;;;;;;5094857;28;20024;-68
2021/11/26 01:16:00;;;;;;;13.27;6.45;;;;;;;;;;5095403;28;20028;-68
2021/11/26 01:18:26;;;;;;;12.82;6.90;;;;;;;;;;5095214;28;20025;-69
2021/11/26 01:20:52;;;;;;;13.38;7.30;;;;;;;;;;5094684;28;20036;-68
2021/11/26 01:23:18;;;;;;;11.18;6.90;;;;;;;;;;5094985;28;20024;-69
2021/11/26 01:25:45;;;;;;;13.38;7.38;;;;;;;;;;5076452;28;20031;-68
2021/11/26 01:28:11;;;;;;;14.20;7.18;;;;;;;;;;5095170;28;20028;-68
2021/11/26 01:30:43;;;;;;;10.18;5.45;;;;;;;;;;5094848;28;20028;-68
2021/11/26 01:33:10;;;;;;;10.95;5.57;;;;;;;;;;5094443;28;20020;-68
2021/11/26 01:35:40;;;;;;;11.20;4.85;;;;;;;;;;5076537;28;20031;-68
2021/11/26 01:38:07;;;;;;;7.80;4.22;;;;;;;;;;5094957;28;20493;-68
2021/11/26 01:40:34;;;;;;;8.60;4.68;;;;;;;;;;5094253;28;20036;-67
2021/11/26 01:43:01;;;;;;;12.55;5.35;;;;;;;;;;5094853;28;20020;-67
2021/11/26 01:45:27;;;;;;;8.52;4.38;;;;;;;;;;5094665;28;20024;-69
2021/11/26 01:47:54;;;;;;;10.23;5.22;;;;;;;;;;5094099;28;20024;-67
2021/11/26 01:50:22;;;;;;;10.93;5.70;;;;;;;;;;5094580;28;20027;-68
2021/11/26 01:52:49;;;;;;;10.98;5.65;;;;;;;;;;5094556;28;20016;-69
2021/11/26 01:55:15;;;;;;;11.93;5.85;;;;;;;;;;5094025;28;20107;-69
2021/11/26 01:57:44;;;;;;;10.45;4.78;;;;;;;;;;5094446;28;20490;-69
2021/11/26 02:00:11;;;;;;;11.30;6.13;;;;;;;;;;5076243;28;20127;-68
2021/11/26 02:02:38;;;;;;;11.73;5.70;;;;;;;;;;5094019;28;20050;-69
2021/11/26 02:05:04;;;;;;;12.43;5.53;;;;;;;;;;5094288;28;20046;-69
2021/11/26 02:07:30;;;;;;;11.18;5.72;;;;;;;;;;5076040;28;20024;-69
2021/11/26 02:09:56;;;;;;;9.80;5.15;;;;;;;;;;5094018;28;20024;-68
2021/11/26 02:12:23;;;;;;;8.65;5.10;;;;;;;;;;5094098;28;20035;-68
2021/11/26 02:14:49;;;;;;;10.77;5.32;;;;;;;;;;5075845;28;20073;-68
2021/11/26 02:17:15;;;;;;;9.10;5.07;;;;;;;;;;5093665;28;20092;-69
2021/11/26 02:19:41;;;;;;;9.65;5.72;;;;;;;;;;5094045;28;20035;-68
2021/11/26 02:22:07;;;;;;;13.98;5.30;;;;;;;;;;5093757;28;20054;-68
2021/11/26 02:24:34;;;;;;;11.88;6.18;;;;;;;;;;5093944;28;20016;-68
2021/11/26 02:27:00;;;;;;;11.88;5.38;;;;;;;;;;5075797;28;20024;-69
2021/11/26 02:29:26;;;;;;;9.45;5.38;;;;;;;;;;5093337;28;20070;-68
2021/11/26 02:31:52;;;;;;;9.25;4.80;;;;;;;;;;5093964;28;20079;-68
2021/11/26 02:34:19;;;;;;;9.82;5.18;;;;;;;;;;5093749;28;20020;-68
2021/11/26 02:36:45;;;;;;;10.77;5.18;;;;;;;;;;5093586;28;20032;-69
2021/11/26 02:39:11;;;;;;;8.07;4.72;;;;;;;;;;5075490;28;20447;-68
2021/11/26 02:41:39;;;;;;;11.30;4.78;;;;;;;;;;5094004;28;20438;-68
2021/11/26 02:44:05;;;;;;;8.38;4.93;;;;;;;;;;5075128;28;20571;-68
2021/11/26 02:46:32;;;;;;;8.85;5.05;;;;;;;;;;5075495;28;20103;-68
2021/11/26 02:48:58;;;;;;;10.02;5.40;;;;;;;;;;5093666;28;20103;-68
2021/11/26 02:51:24;;;;;;;9.23;5.22;;;;;;;;;;5075031;28;20034;-68
2021/11/26 02:53:50;;;;;;;10.50;5.20;;;;;;;;;;5093683;28;20467;-68
2021/11/26 02:56:17;;;;;;;11.73;4.95;;;;;;;;;;5093589;28;20023;-68
2021/11/26 02:58:43;;;;;;;9.18;5.07;;;;;;;;;;5093043;28;20102;-68
2021/11/26 03:01:09;;;;;;;10.50;5.03;;;;;;;;;;5093164;28;20350;-68
2021/11/26 03:03:36;;;;;;;10.13;4.50;;;;;;;;;;5093424;28;20032;-68
2021/11/26 03:06:04;;;;;;;8.73;4.53;;;;;;;;;;5093006;28;20024;-68
2021/11/26 03:08:30;;;;;;;9.57;5.18;;;;;;;;;;5075264;28;20541;-69
2021/11/26 03:10:57;;;;;;;7.43;4.25;;;;;;;;;;5093708;28;20387;-68
2021/11/26 03:13:24;;;;;;;10.05;5.05;;;;;;;;;;5093186;28;20024;-68
2021/11/26 03:15:50;;;;;;;9.15;4.72;;;;;;;;;;5093370;28;20031;-69
2021/11/26 03:18:18;;;;;;;9.32;5.38;;;;;;;;;;5093002;28;20020;-68
2021/11/26 03:20:45;;;;;;;8.20;4.07;;;;;;;;;;5093218;28;20381;-68
2021/11/26 03:23:11;;;;;;;10.10;4.85;;;;;;;;;;5093315;28;20024;-69
2021/11/26 03:25:40;;;;;;;7.88;4.30;;;;;;;;;;5092976;28;20063;-68
2021/11/26 03:28:06;;;;;;;9.70;5.05;;;;;;;;;;5075021;28;20055;-68
2021/11/26 03:30:32;;;;;;;10.13;5.05;;;;;;;;;;5075044;28;20041;-68
2021/11/26 03:33:00;;;;;;;8.60;4.47;;;;;;;;;;5074718;28;20373;-69
2021/11/26 03:35:27;;;;;;;9.63;4.68;;;;;;;;;;5093275;28;20547;-68
2021/11/26 03:37:53;;;;;;;8.95;5.03;;;;;;;;;;5093051;28;20020;-68
2021/11/26 03:40:20;;;;;;;9.48;4.85;;;;;;;;;;5074548;28;20047;-68
2021/11/26 03:42:47;;;;;;;8.35;4.72;;;;;;;;;;5095086;28;20335;-68
2021/11/26 03:45:14;;;;;;;9.63;4.93;;;;;;;;;;5096887;28;20055;-68
2021/11/26 03:47:40;;;;;;;9.38;5.05;;;;;;;;;;5096691;28;20020;-69
2021/11/26 03:50:07;;;;;;;8.63;4.93;;;;;;;;;;5096915;28;20020;-69
2021/11/26 03:52:33;;;;;;;11.68;5.43;;;;;;;;;;5078822;28;20028;-68
2021/11/26 03:54:59;;;;;;;9.82;5.50;;;;;;;;;;5078162;28;20098;-69
2021/11/26 03:57:26;;;;;;;11.85;6.22;;;;;;;;;;5096744;28;20036;-68
2021/11/26 03:59:52;;;;;;;12.55;6.22;;;;;;;;;;5096607;28;20048;-68
2021/11/26 04:02:18;;;;;;;12.85;5.70;;;;;;;;;;5096451;28;20051;-68
2021/11/26 04:04:44;;;;;;;14.02;5.85;;;;;;;;;;5096827;28;20027;-68
2021/11/26 04:07:10;;;;;;;11.27;5.35;;;;;;;;;;5096769;28;20024;-69
2021/11/26 04:09:37;;;;;;;9.27;5.45;;;;;;;;;;5096072;28;20065;-68
2021/11/26 04:12:03;;;;;;;11.90;5.32;;;;;;;;;;5078241;28;20022;-68
2021/11/26 04:14:29;;;;;;;10.88;4.75;;;;;;;;;;5095976;28;20024;-68
2021/11/26 04:16:56;;;;;;;12.10;5.25;;;;;;;;;;5096559;28;20050;-69
2021/11/26 04:19:22;;;;;;;8.77;4.32;;;;;;;;;;5096214;28;20502;-68
2021/11/26 04:21:48;;;;;;;8.45;4.72;;;;;;;;;;5095846;28;20751;-68
2021/11/26 04:24:14;;;;;;;8.68;4.13;;;;;;;;;;5096206;28;20072;-69
2021/11/26 04:26:40;;;;;;;8.13;4.22;;;;;;;;;;5096181;28;20020;-68
2021/11/26 04:29:07;;;;;;;7.10;3.83;;;;;;;;;;5095738;28;20392;-68
2021/11/26 04:31:33;;;;;;;8.60;4.60;;;;;;;;;;5096141;28;20016;-69
2021/11/26 04:33:59;;;;;;;7.88;4.05;;;;;;;;;;5096057;28;20024;-68
2021/11/26 04:36:25;;;;;;;11.18;4.60;;;;;;;;;;5095576;28;20461;-68
2021/11/26 04:38:51;;;;;;;7.75;4.28;;;;;;;;;;5077868;28;20032;-68
2021/11/26 04:41:17;;;;;;;8.68;4.65;;;;;;;;;;5095812;28;20036;-68
2021/11/26 04:43:44;;;;;;;8.40;4.07;;;;;;;;;;5077324;28;20024;-69
2021/11/26 04:46:10;;;;;;;7.90;3.92;;;;;;;;;;5077696;28;20391;-68
2021/11/26 04:48:36;;;;;;;11.68;5.75;;;;;;;;;;5095763;28;20016;-68
2021/11/26 04:51:02;;;;;;;8.80;4.80;;;;;;;;;;5095334;28;20024;-68
2021/11/26 04:53:28;;;;;;;11.80;6.53;;;;;;;;;;5095332;28;20100;-68
2021/11/26 04:55:55;;;;;;;9.32;5.03;;;;;;;;;;5095717;28;20107;-68
2021/11/26 04:58:21;;;;;;;9.38;4.90;;;;;;;;;;5095220;28;20020;-68
2021/11/26 05:00:47;;;;;;;32.10;13.13;;;;;;;;;;5077173;28;20062;-67
2021/11/26 05:03:13;;;;;;;19.63;9.63;;;;;;;;;;5095551;28;20030;-68
2021/11/26 05:05:40;;;;;;;16.67;8.40;;;;;;;;;;5095078;28;20028;-68
2021/11/26 05:08:06;;;;;;;14.05;8.77;;;;;;;;;;5095455;28;20024;-69
2021/11/26 05:10:32;;;;;;;10.43;5.65;;;;;;;;;;5095452;28;20032;-68
2021/11/26 05:12:59;;;;;;;9.20;4.72;;;;;;;;;;5094954;28;20026;-67
2021/11/26 05:15:27;;;;;;;9.23;5.07;;;;;;;;;;5095228;28;20027;-69
2021/11/26 05:17:54;;;;;;;6.07;2.83;;;;;;;;;;5076696;28;20027;-69
2021/11/26 05:20:21;;;;;;;6.13;2.78;;;;;;;;;;5076903;28;20036;-68
2021/11/26 05:22:47;;;;;;;8.00;2.53;;;;;;;;;;5077022;28;20200;-68
2021/11/26 05:25:14;;;;;;;7.65;2.95;;;;;;;;;;5094752;28;20024;-68
2021/11/26 05:27:40;;;;;;;5.35;2.90;;;;;;;;;;5076811;28;20054;-68
2021/11/26 05:30:07;;;;;;;5.90;3.15;;;;;;;;;;5095129;28;20024;-69
2021/11/26 05:32:33;;;;;;;5.43;3.25;;;;;;;;;;5076520;28;20051;-69
2021/11/26 05:34:59;;;;;;;8.68;4.03;;;;;;;;;;5094880;28;20043;-68
2021/11/26 05:37:25;;;;;;;7.03;3.83;;;;;;;;;;5076676;28;20031;-68
2021/11/26 05:39:52;;;;;;;9.13;4.07;;;;;;;;;;5094415;28;20047;-68
2021/11/26 05:42:18;;;;;;;8.05;4.05;;;;;;;;;;5076625;28;20036;-68
2021/11/26 05:44:44;;;;;;;8.65;3.63;;;;;;;;;;5094755;28;20024;-68
2021/11/26 05:47:10;;;;;;;8.43;4.13;;;;;;;;;;5094159;28;20024;-68
2021/11/26 05:49:36;;;;;;;7.97;4.15;;;;;;;;;;5095058;28;20024;-68
2021/11/26 05:52:03;;;;;;;9.63;3.72;;;;;;;;;;5094539;28;20569;-68
2021/11/26 05:54:29;;;;;;;8.38;3.42;;;;;;;;;;5094151;28;20035;-68
2021/11/26 05:56:55;;;;;;;12.90;5.65;;;;;;;;;;5094426;28;20028;-68
2021/11/26 05:59:21;;;;;;;10.10;5.20;;;;;;;;;;5094180;28;20024;-68
2021/11/26 06:01:47;;;;;;;15.32;8.02;;;;;;;;;;5075794;28;20052;-68
2021/11/26 06:04:13;;;;;;;21.92;9.13;;;;;;;;;;5075884;28;20046;-68
2021/11/26 06:06:39;;;;;;;15.90;8.93;;;;;;;;;;5093957;28;20099;-68
2021/11/26 06:09:06;;;;;;;15.10;9.63;;;;;;;;;;5093772;28;20023;-68
2021/11/26 06:11:32;;;;;;;13.85;7.78;;;;;;;;;;5076014;28;20027;-68
2021/11/26 06:13:59;;;;;;;13.70;7.60;;;;;;;;;;5093958;28;20081;-68
2021/11/26 06:16:25;;;;;;;10.80;6.43;;;;;;;;;;5094083;28;20027;-68
2021/11/26 06:18:51;;;;;;;20.48;12.13;;;;;;;;;;5094262;28;20392;-69
2021/11/26 06:21:17;;;;;;;15.93;10.63;;;;;;;;;;5068966;28;20102;-68
2021/11/26 06:23:44;;;;;;;26.52;11.00;;;;;;;;;;5080857;28;20017;-68
2021/11/26 06:26:10;;;;;;;21.55;12.07;;;;;;;;;;5079309;28;20035;-68
2021/11/26 06:28:36;;;;;;;8.77;4.97;;;;;;;;;;5078010;28;20496;-67
2021/11/26 06:31:02;;;;;;;7.05;4.15;;;;;;;;;;5086077;28;20240;-68
2021/11/26 06:33:28;;;;;;;17.00;9.18;;;;;;;;;;5086011;28;20134;-68
2021/11/26 06:35:55;;;;;;;10.40;5.38;;;;;;;;;;5079946;28;20020;-68
2021/11/26 06:38:21;;;;;;;12.85;5.65;;;;;;;;;;5070889;28;20021;-67
2021/11/26 06:40:47;;;;;;;9.55;4.95;;;;;;;;;;5053273;28;20037;-67
2021/11/26 06:43:14;;;;;;;8.27;4.50;;;;;;;;;;5072339;28;20017;-69
2021/11/26 06:45:42;;;;;;;11.15;4.40;;;;;;;;;;5054028;28;20538;-68
2021/11/26 06:48:08;;;;;;;11.65;4.65;;;;;;;;;;5072168;28;20134;-68
2021/11/26 06:50:35;;;;;;;12.02;6.40;;;;;;;;;;5053924;28;20032;-68
2021/11/26 06:53:03;;;;;;;14.15;6.93;;;;;;;;;;5071764;28;20103;-69
2021/11/26 06:55:29;;;;;;;15.18;7.40;;;;;;;;;;5054040;28;20112;-68
2021/11/26 06:57:55;;;;;;;10.65;5.13;;;;;;;;;;5071941;28;20020;-68
2021/11/26 07:00:21;;;;;;;10.35;4.47;;;;;;;;;;5052848;28;20421;-68
2021/11/26 07:02:47;;;;;;;20.63;10.23;;;;;;;;;;5069456;28;20020;-69
2021/11/26 07:05:14;;;;;;;22.95;12.85;;;;;;;;;;5071210;28;20473;-68
2021/11/26 07:07:40;;;;;;;14.63;7.65;;;;;;;;;;5071444;28;20358;-71
2021/11/26 07:10:07;;;;;;;23.58;12.00;;;;;;;;;;5071391;28;20017;-70
2021/11/26 07:12:34;;;;;;;33.28;15.85;;;;;;;;;;5071297;28;20025;-71
2021/11/26 07:15:01;;;;;;;31.55;14.05;;;;;;;;;;5046441;28;20089;-71
2021/11/26 07:17:27;;;;;;;13.38;6.35;;;;;;;;;;5066043;28;20024;-70
2021/11/26 07:19:54;;;;;;;32.22;17.13;;;;;;;;;;5111289;28;20476;-70
2021/11/26 07:22:20;;;;;;;29.80;17.95;;;;;;;;;;5100328;28;20036;-70
2021/11/26 07:24:46;;;;;;;54.05;27.70;;;;;;;;;;5095482;28;20145;-70
2021/11/26 07:27:13;;;;;;;21.90;11.98;;;;;;;;;;5078247;28;20028;-70
2021/11/26 07:29:40;;;;;;;14.95;7.43;;;;;;;;;;5077066;28;20028;-69
2021/11/26 07:32:07;;;;;;;22.42;11.55;;;;;;;;;;5109431;28;20019;-69
2021/11/26 07:34:33;;;;;;;34.15;15.52;;;;;;;;;;5097439;28;20028;-70
2021/11/26 07:36:59;;;;;;;16.23;9.00;;;;;;;;;;5094917;28;20484;-70
2021/11/26 07:39:33;;;;;;;24.23;14.75;;;;;;;;;;5095549;28;20020;-71
2021/11/26 07:41:59;;;;;;;22.42;11.75;;;;;;;;;;5093861;28;20028;-70
2021/11/26 07:44:25;;;;;;;16.00;8.85;;;;;;;;;;5067720;28;20020;-76
2021/11/26 07:46:51;;;;;;;20.52;12.75;;;;;;;;;;5084346;28;20028;-70
2021/11/26 07:49:17;;;;;;;18.30;10.50;;;;;;;;;;5099768;28;20127;-71
2021/11/26 07:51:44;;;;;;;14.48;8.65;;;;;;;;;;5090636;28;20032;-70
2021/11/26 07:54:10;;;;;;;14.25;7.78;;;;;;;;;;5075855;28;20056;-71
2021/11/26 07:56:36;;;;;;;14.57;8.20;;;;;;;;;;5057826;28;20489;-71
2021/11/26 07:59:03;;;;;;;19.17;10.40;;;;;;;;;;5075603;28;20082;-71
2021/11/26 08:01:29;;;;;;;22.13;12.60;;;;;;;;;;5073810;28;20048;-73
2021/11/26 08:03:55;;;;;;;15.50;9.52;;;;;;;;;;5073275;28;20410;-70
2021/11/26 08:06:22;;;;;;;26.23;15.40;;;;;;;;;;5054805;28;20021;-70
2021/11/26 08:08:48;;;;;;;21.55;11.63;;;;;;;;;;5072796;28;20028;-70
2021/11/26 08:11:14;;;;;;;19.25;10.63;;;;;;;;;;5047465;28;20024;-71
2021/11/26 08:13:40;;;;;;;18.20;9.60;;;;;;;;;;5088208;28;20392;-71
2021/11/26 08:16:08;;;;;;;15.70;9.30;;;;;;;;;;5080014;28;20109;-71
2021/11/26 08:18:34;;;;;;;14.25;8.25;;;;;;;;;;5057980;28;20387;-70
2021/11/26 08:21:00;;;;;;;17.27;9.93;;;;;;;;;;5075280;28;20044;-70
2021/11/26 08:23:27;;;;;;;17.27;10.32;;;;;;;;;;5075319;28;20032;-71
2021/11/26 08:25:55;;;;;;;14.90;8.10;;;;;;;;;;5076042;28;20024;-72
2021/11/26 08:28:21;;;;;;;22.85;12.07;;;;;;;;;;5055242;28;20016;-71
2021/11/26 08:30:47;;;;;;;24.38;10.07;;;;;;;;;;5074003;28;20654;-71
2021/11/26 08:33:13;;;;;;;16.77;8.15;;;;;;;;;;5073707;28;20031;-71
2021/11/26 08:35:39;;;;;;;16.08;8.45;;;;;;;;;;5072687;28;20605;-71
2021/11/26 08:38:06;;;;;;;22.98;12.70;;;;;;;;;;5073747;28;20051;-71
2021/11/26 08:40:32;;;;;;;18.48;10.27;;;;;;;;;;5073704;28;20119;-71
2021/11/26 08:42:58;;;;;;;12.55;7.07;;;;;;;;;;5054935;28;20024;-73
2021/11/26 08:45:24;;;;;;;18.67;9.63;;;;;;;;;;5073978;28;20420;-72
2021/11/26 08:47:51;;;;;;;30.55;13.90;;;;;;;;;;5075384;28;20375;-71
2021/11/26 08:50:20;;;;;;;11.95;7.38;;;;;;;;;;5055316;28;20469;-71
2021/11/26 08:52:48;;;;;;;19.70;9.90;;;;;;;;;;5077521;28;20526;-72
2021/11/26 08:55:17;;;;;;;17.60;9.30;;;;;;;;;;5074509;28;20472;-71
2021/11/26 08:57:50;;;;;;;10.82;5.50;;;;;;;;;;5110572;28;20470;-72
2021/11/26 09:00:18;;;;;;;12.32;6.03;;;;;;;;;;5099751;28;20090;-71
2021/11/26 09:02:45;;;;;;;15.07;8.27;;;;;;;;;;5100444;28;20066;-72
2021/11/26 09:05:11;;;;;;;15.13;8.95;;;;;;;;;;5075884;28;20413;-72
2021/11/26 09:07:37;;;;;;;20.75;11.07;;;;;;;;;;5075824;28;20063;-72
2021/11/26 09:10:03;;;;;;;18.33;9.07;;;;;;;;;;5093484;28;20435;-75
2021/11/26 09:12:30;;;;;;;10.73;6.10;;;;;;;;;;5093697;28;20032;-71
2021/11/26 09:14:56;;;;;;;12.80;6.55;;;;;;;;;;5094227;28;20020;-70
2021/11/26 09:17:23;;;;;;;10.23;5.30;;;;;;;;;;5093153;28;20500;-70
2021/11/26 09:19:49;;;;;;;12.05;6.93;;;;;;;;;;5093735;28;20036;-70
2021/11/26 09:22:15;;;;;;;10.88;6.05;;;;;;;;;;5094441;28;20122;-70
2021/11/26 09:24:41;;;;;;;13.80;6.63;;;;;;;;;;5094536;28;20016;-70
2021/11/26 09:27:07;;;;;;;9.98;5.55;;;;;;;;;;5093881;28;20492;-70
2021/11/26 09:29:34;;;;;;;9.38;5.03;;;;;;;;;;5076561;28;20028;-69
2021/11/26 09:32:01;;;;;;;10.25;4.75;;;;;;;;;;5074710;28;20107;-69
2021/11/26 09:34:28;;;;;;;9.05;4.03;;;;;;;;;;5074323;28;20111;-69
2021/11/26 09:36:56;;;;;;;9.75;5.43;;;;;;;;;;5093066;28;20104;-70
2021/11/26 09:39:22;;;;;;;15.88;6.38;;;;;;;;;;5092524;28;20025;-70
2021/11/26 09:41:49;;;;;;;7.85;4.32;;;;;;;;;;5093268;28;20481;-70
2021/11/26 09:44:15;;;;;;;12.88;6.15;;;;;;;;;;5075946;28;20077;-70
2021/11/26 09:46:44;;;;;;;10.13;5.47;;;;;;;;;;5093929;28;20020;-70
2021/11/26 09:49:10;;;;;;;22.10;9.15;;;;;;;;;;5093344;28;20024;-72
2021/11/26 09:51:37;;;;;;;40.47;18.58;;;;;;;;;;5075182;28;20055;-69
2021/11/26 09:54:04;;;;;;;12.98;7.43;;;;;;;;;;5092332;28;20048;-68
2021/11/26 09:56:31;;;;;;;12.43;7.05;;;;;;;;;;5095531;28;20098;-69
2021/11/26 09:58:59;;;;;;;12.50;6.47;;;;;;;;;;5095854;28;20449;-70
2021/11/26 10:01:25;;;;;;;16.98;8.55;;;;;;;;;;5084196;28;20135;-70
2021/11/26 10:03:53;;;;;;;11.75;6.30;;;;;;;;;;5071463;28;20491;-70
2021/11/26 10:06:38;;;;;;;8.57;4.97;;;;;;;;;;5072337;28;20392;-70
2021/11/26 10:09:11;;;;;;;14.27;7.35;;;;;;;;;;5073609;28;20032;-69
2021/11/26 10:11:44;;;;;;;12.38;6.85;;;;;;;;;;5072978;28;20029;-71
2021/11/26 10:14:24;;;;;;;29.98;12.85;;;;;;;;;;5068072;28;21032;-71
2021/11/26 10:16:54;;;;;;;13.50;5.80;;;;;;;;;;5091537;28;20020;-71
2021/11/26 10:19:33;;;;;;;15.63;6.75;;;;;;;;;;5093171;28;20016;-71
2021/11/26 10:22:00;;;;;;;15.10;7.32;;;;;;;;;;5091769;28;20038;-71
2021/11/26 10:24:26;;;;;;;18.55;10.07;;;;;;;;;;5093278;28;20112;-71
2021/11/26 10:26:54;;;;;;;20.17;10.52;;;;;;;;;;5088695;28;20024;-70
2021/11/26 10:29:31;;;;;;;20.98;11.25;;;;;;;;;;5089501;28;20012;-69
2021/11/26 10:32:05;;;;;;;18.33;10.18;;;;;;;;;;5057244;28;20520;-70
2021/11/26 10:34:31;;;;;;;12.85;7.28;;;;;;;;;;5066454;28;20423;-69
2021/11/26 10:36:57;;;;;;;10.77;6.57;;;;;;;;;;5073492;28;20109;-69
2021/11/26 10:39:24;;;;;;;15.73;7.75;;;;;;;;;;5071108;28;20028;-70
2021/11/26 10:41:55;;;;;;;11.55;6.05;;;;;;;;;;5071369;28;20565;-72
2021/11/26 10:44:49;;;;;;;9.15;4.25;;;;;;;;;;5073370;28;20054;-70
2021/11/26 10:47:19;;;;;;;6.03;3.17;;;;;;;;;;5072986;28;20086;-70
2021/11/26 10:50:18;;;;;;;6.28;2.72;;;;;;;;;;5071468;28;20028;-70
2021/11/26 10:56:40;;;;;;;7.88;4.00;;;;;;;;;;5069556;28;20035;-69
2021/11/26 10:58:42;;;;;;;11.02;5.57;;;;;;;;;;5031515;28;20084;-70
2021/11/26 11:01:14;;;;;;;6.78;3.45;;;;;;;;;;5069754;28;20052;-70
2021/11/26 11:03:44;;;;;;;4.88;2.40;;;;;;;;;;5082053;28;20494;-70
2021/11/26 11:06:24;;;;;;;3.15;2.03;;;;;;;;;;5090969;28;20026;-70
2021/11/26 11:09:11;;;;;;;7.85;3.47;;;;;;;;;;5074210;28;20468;-70
2021/11/26 11:11:37;;;;;;;8.90;4.05;;;;;;;;;;5090065;28;20085;-70
2021/11/26 11:14:15;;;;;;;9.52;4.32;;;;;;;;;;5070116;28;20077;-70
2021/11/26 11:16:47;;;;;;;7.68;3.78;;;;;;;;;;5070717;28;20024;-70
2021/11/26 11:19:14;;;;;;;6.07;3.05;;;;;;;;;;5072887;28;20021;-69
2021/11/26 11:21:40;;;;;;;10.00;4.32;;;;;;;;;;5072653;28;20060;-70
2021/11/26 11:24:06;;;;;;;8.93;4.38;;;;;;;;;;5071063;28;20078;-70
2021/11/26 11:26:32;;;;;;;8.23;4.30;;;;;;;;;;5071140;28;20447;-70
2021/11/26 11:28:59;;;;;;;8.68;3.03;;;;;;;;;;5070751;28;20042;-70
2021/11/26 11:31:25;;;;;;;10.55;4.85;;;;;;;;;;5069377;28;20040;-72
2021/11/26 11:33:52;;;;;;;6.45;3.28;;;;;;;;;;5069824;28;20021;-70
2021/11/26 11:36:18;;;;;;;14.88;6.97;;;;;;;;;;5069031;28;20020;-70
2021/11/26 11:38:45;;;;;;;9.43;4.13;;;;;;;;;;5068111;28;20488;-70
2021/11/26 11:41:11;;;;;;;7.28;3.50;;;;;;;;;;5050521;28;20093;-70
2021/11/26 11:43:42;;;;;;;9.50;4.63;;;;;;;;;;5068268;28;20074;-70
2021/11/26 11:46:11;;;;;;;13.57;6.40;;;;;;;;;;5068226;28;20114;-70
2021/11/26 11:48:43;;;;;;;12.15;6.15;;;;;;;;;;5070024;28;20048;-73
2021/11/26 11:51:19;;;;;;;10.77;5.38;;;;;;;;;;5071874;28;20029;-71
2021/11/26 11:53:45;;;;;;;24.98;11.40;;;;;;;;;;5071253;28;20077;-70
2021/11/26 11:56:13;;;;;;;17.60;9.65;;;;;;;;;;5053986;28;20021;-71
2021/11/26 11:58:48;;;;;;;24.13;11.85;;;;;;;;;;5054293;28;20025;-70
2021/11/26 12:01:24;;;;;;;18.80;7.15;;;;;;;;;;5069577;28;20102;-71
2021/11/26 12:03:52;;;;;;;12.30;5.32;;;;;;;;;;5070827;28;20573;-71
2021/11/26 12:06:18;;;;;;;11.27;5.43;;;;;;;;;;5072054;28;20111;-70
2021/11/26 12:08:46;;;;;;;10.25;4.30;;;;;;;;;;5055920;28;20073;-70
2021/11/26 12:11:23;;;;;;;9.95;4.63;;;;;;;;;;5074926;28;20039;-70
2021/11/26 12:13:59;;;;;;;12.75;5.28;;;;;;;;;;5074582;28;20483;-71
2021/11/26 12:16:25;;;;;;;12.20;5.38;;;;;;;;;;5058219;28;20542;-71
2021/11/26 12:18:52;;;;;;;8.52;3.90;;;;;;;;;;5055966;28;20465;-71
2021/11/26 12:21:36;;;;;;;9.75;4.15;;;;;;;;;;5073678;28;20103;-71
2021/11/26 12:24:12;;;;;;;10.32;4.80;;;;;;;;;;5056098;28;20370;-71
2021/11/26 12:26:52;;;;;;;8.82;3.58;;;;;;;;;;5074138;28;20021;-71
2021/11/26 12:29:19;;;;;;;12.05;5.25;;;;;;;;;;5074064;28;20389;-71
2021/11/26 12:31:46;;;;;;;10.60;5.68;;;;;;;;;;5074063;28;20021;-71
2021/11/26 12:34:13;;;;;;;9.38;5.00;;;;;;;;;;5056060;28;20043;-71
2021/11/26 12:36:41;;;;;;;8.57;4.13;;;;;;;;;;5074264;28;20025;-71
2021/11/26 12:39:10;;;;;;;20.60;11.00;;;;;;;;;;5074740;28;20028;-71
2021/11/26 12:41:38;;;;;;;10.13;6.03;;;;;;;;;;5074894;28;20133;-71
2021/11/26 12:44:05;;;;;;;6.72;3.13;;;;;;;;;;5075612;28;20124;-71
2021/11/26 12:46:33;;;;;;;12.50;8.25;;;;;;;;;;5073676;28;20024;-71
2021/11/26 12:51:40;;;;;;;11.65;7.25;;;;;;;;;;5075390;28;20047;-71
2021/11/26 12:54:07;;;;;;;27.85;13.13;;;;;;;;;;5075033;28;20029;-71
2021/11/26 12:56:34;;;;;;;19.35;10.07;;;;;;;;;;5056982;28;20046;-71
2021/11/26 12:59:00;;;;;;;10.98;5.50;;;;;;;;;;5075180;28;20381;-71
2021/11/26 13:01:31;;;;;;;5.82;2.78;;;;;;;;;;5074391;28;20127;-71
2021/11/26 13:03:57;;;;;;;7.97;4.05;;;;;;;;;;5075133;28;20100;-71
2021/11/26 13:06:24;;;;;;;6.97;3.38;;;;;;;;;;5057220;28;20059;-71
2021/11/26 13:08:57;;;;;;;8.13;4.20;;;;;;;;;;5056545;28;20021;-71
2021/11/26 13:11:24;;;;;;;10.82;5.47;;;;;;;;;;5074750;28;20033;-71
2021/11/26 13:13:50;;;;;;;11.43;5.68;;;;;;;;;;5057035;28;20428;-71
2021/11/26 13:16:18;;;;;;;8.68;4.10;;;;;;;;;;5056430;28;20025;-71
2021/11/26 13:18:44;;;;;;;11.23;6.40;;;;;;;;;;5056995;28;20042;-71
2021/11/26 13:21:13;;;;;;;12.90;6.13;;;;;;;;;;5056710;28;20033;-72
2021/11/26 13:23:39;;;;;;;24.55;12.95;;;;;;;;;;5056263;28;20500;-71
2021/11/26 13:26:08;;;;;;;18.60;9.52;;;;;;;;;;5074801;28;20477;-71
2021/11/26 13:28:37;;;;;;;9.38;5.00;;;;;;;;;;5074560;28;20117;-71
2021/11/26 13:31:07;;;;;;;10.32;5.45;;;;;;;;;;5071144;28;20416;-70
2021/11/26 13:33:34;;;;;;;8.60;5.50;;;;;;;;;;5100894;28;20023;-70
2021/11/26 13:36:07;;;;;;;11.10;7.60;;;;;;;;;;5057994;28;20052;-71
2021/11/26 13:38:35;;;;;;;15.83;9.03;;;;;;;;;;5053343;28;20038;-71
2021/11/26 13:41:03;;;;;;;15.52;9.05;;;;;;;;;;5114244;28;20432;-70
2021/11/26 13:43:34;;;;;;;16.17;9.90;;;;;;;;;;5114453;28;20074;-71
2021/11/26 13:46:14;;;;;;;15.73;9.70;;;;;;;;;;5114552;28;20533;-71
2021/11/26 13:48:43;;;;;;;20.77;13.38;;;;;;;;;;5114669;28;20391;-71
2021/11/26 13:51:10;;;;;;;13.43;7.35;;;;;;;;;;5095878;28;20027;-71
2021/11/26 13:53:37;;;;;;;20.98;12.63;;;;;;;;;;5113819;28;20541;-71
2021/11/26 13:56:04;;;;;;;44.65;30.23;;;;;;;;;;5096176;28;20028;-71
2021/11/26 13:58:32;;;;;;;42.80;29.95;;;;;;;;;;5095320;28;20479;-71
2021/11/26 14:00:59;;;;;;;36.50;24.55;;;;;;;;;;5095970;28;20055;-70
2021/11/26 14:03:29;;;;;;;38.40;24.90;;;;;;;;;;5094694;28;20028;-71
2021/11/26 14:05:56;;;;;;;50.72;30.55;;;;;;;;;;5089521;28;20353;-71
2021/11/26 14:08:22;;;;;;;38.28;24.67;;;;;;;;;;5093621;28;20051;-70
2021/11/26 14:10:48;;;;;;;34.55;24.15;;;;;;;;;;5093884;28;20032;-70
2021/11/26 14:13:14;;;;;;;41.22;24.92;;;;;;;;;;5092503;28;20032;-70
2021/11/26 14:15:41;;;;;;;32.40;20.83;;;;;;;;;;5075750;28;20065;-70
2021/11/26 14:18:11;;;;;;;27.80;17.25;;;;;;;;;;5093140;28;20031;-70
2021/11/26 14:20:39;;;;;;;75.95;42.47;;;;;;;;;;5092388;28;20409;-70
2021/11/26 14:23:16;;;;;;;48.30;26.67;;;;;;;;;;5093878;28;20012;-70
2021/11/26 14:25:44;;;;;;;58.33;33.30;;;;;;;;;;5074811;28;20412;-70
2021/11/26 14:28:18;;;;;;;33.72;20.42;;;;;;;;;;5074607;28;20024;-70
2021/11/26 14:30:44;;;;;;;32.78;19.17;;;;;;;;;;5093503;28;20491;-71
2021/11/26 14:33:13;;;;;;;45.63;26.25;;;;;;;;;;5093468;28;20027;-69
2021/11/26 14:35:40;;;;;;;22.60;13.63;;;;;;;;;;5092863;28;20024;-69
2021/11/26 14:38:08;;;;;;;14.93;7.43;;;;;;;;;;5093716;28;20020;-69
2021/11/26 14:40:35;;;;;;;6.28;3.35;;;;;;;;;;5093472;28;20160;-69